sensor_id;sensor_type;location;lat;lon;timestamp;temperature;humidity
72919;SHT30;68407;55.694;26.994;2024-01-10T00:02:49;1.4;91.9
72919;SHT30;68407;55.694;26.994;2024-01-10T00:08:19;1.4;91.9
72919;SHT30;68407;55.694;26.994;2024-01-10T00:13:07;1.4;91.8
72919;SHT30;68407;55.694;26.994;2024-01-10T00:18:11;1.4;91.8
72919;SHT30;68407;55.694;26.994;2024-01-10T00:22:39;1.4;91.9
72919;SHT30;68407;55.694;26.994;2024-01-10T00:27:57;1.4;91.9
72919;SHT30;68407;55.694;26.994;2024-01-10T00:33:21;1.4;91.9
72919;SHT30;68407;55.694;26.994;2024-01-10T00:37:55;1.5;91.9
72919;SHT30;68407;55.694;26.994;2024-01-10T00:42:43;1.5;91.9
72919;SHT30;68407;55.694;26.994;2024-01-10T00:48:00;1.5;91.9
72919;SHT30;68407;55.694;26.994;2024-01-10T00:52:32;1.5;91.9
72919;SHT30;68407;55.694;26.994;2024-01-10T00:58:19;1.5;91.9
72919;SHT30;68407;55.694;26.994;2024-01-10T01:02:49;1.5;92.1
72919;SHT30;68407;55.694;26.994;2024-01-10T01:08:09;1.5;92.1
72919;SHT30;68407;55.694;26.994;2024-01-10T01:12:51;1.4;92.1
72919;SHT30;68407;55.694;26.994;2024-01-10T01:18:09;1.4;92.2
72919;SHT30;68407;55.694;26.994;2024-01-10T01:23:17;1.4;92.2
72919;SHT30;68407;55.694;26.994;2024-01-10T01:27:53;1.4;92.2
72919;SHT30;68407;55.694;26.994;2024-01-10T01:32:40;1.4;92.1
72919;SHT30;68407;55.694;26.994;2024-01-10T01:37:31;1.4;92.2
72919;SHT30;68407;55.694;26.994;2024-01-10T01:42:40;1.4;92.2
72919;SHT30;68407;55.694;26.994;2024-01-10T01:47:59;1.4;92.2
72919;SHT30;68407;55.694;26.994;2024-01-10T01:52:49;1.4;92.2
72919;SHT30;68407;55.694;26.994;2024-01-10T01:58:07;1.5;92.2
72919;SHT30;68407;55.694;26.994;2024-01-10T02:02:51;1.5;92.2
72919;SHT30;68407;55.694;26.994;2024-01-10T02:08:11;1.5;92.1
72919;SHT30;68407;55.694;26.994;2024-01-10T02:13:19;1.5;92.1
72919;SHT30;68407;55.694;26.994;2024-01-10T02:17:55;1.5;92.2
72919;SHT30;68407;55.694;26.994;2024-01-10T02:22:32;1.5;92.2
72919;SHT30;68407;55.694;26.994;2024-01-10T02:27:41;1.5;92.3
72919;SHT30;68407;55.694;26.994;2024-01-10T02:32:35;1.5;92.3
72919;SHT30;68407;55.694;26.994;2024-01-10T02:38:19;1.5;92.2
72919;SHT30;68407;55.694;26.994;2024-01-10T02:42:47;1.5;92.2
72919;SHT30;68407;55.694;26.994;2024-01-10T02:48:09;1.5;92.3
72919;SHT30;68407;55.694;26.994;2024-01-10T02:52:59;1.6;92.2
72919;SHT30;68407;55.694;26.994;2024-01-10T02:58:09;1.6;92.2
72919;SHT30;68407;55.694;26.994;2024-01-10T03:03:17;1.6;92.3
72919;SHT30;68407;55.694;26.994;2024-01-10T03:07:53;1.6;92.3
72919;SHT30;68407;55.694;26.994;2024-01-10T03:12:37;1.6;92.4
72919;SHT30;68407;55.694;26.994;2024-01-10T03:17:39;1.6;92.4
72919;SHT30;68407;55.694;26.994;2024-01-10T03:22:53;1.6;92.3
72919;SHT30;68407;55.694;26.994;2024-01-10T03:28:17;1.6;92.3
72919;SHT30;68407;55.694;26.994;2024-01-10T03:33:01;1.6;92.3
72919;SHT30;68407;55.694;26.994;2024-01-10T03:38:07;1.6;92.4
72919;SHT30;68407;55.694;26.994;2024-01-10T03:42:29;1.5;92.5
72919;SHT30;68407;55.694;26.994;2024-01-10T03:48:09;1.5;92.5
72919;SHT30;68407;55.694;26.994;2024-01-10T03:53:13;1.6;92.6
72919;SHT30;68407;55.694;26.994;2024-01-10T03:57:55;1.6;92.6
72919;SHT30;68407;55.694;26.994;2024-01-10T04:02:31;1.6;92.6
72919;SHT30;68407;55.694;26.994;2024-01-10T04:07:39;1.6;92.6
72919;SHT30;68407;55.694;26.994;2024-01-10T04:12:31;1.6;92.6
72919;SHT30;68407;55.694;26.994;2024-01-10T04:18:16;1.6;92.7
72919;SHT30;68407;55.694;26.994;2024-01-10T04:23:01;1.6;92.7
72919;SHT30;68407;55.694;26.994;2024-01-10T04:28:08;1.6;92.6
72919;SHT30;68407;55.694;26.994;2024-01-10T04:32:41;1.6;92.6
72919;SHT30;68407;55.694;26.994;2024-01-10T04:38:09;1.6;92.7
72919;SHT30;68407;55.694;26.994;2024-01-10T04:43:15;1.6;92.7
72919;SHT30;68407;55.694;26.994;2024-01-10T04:47:55;1.7;92.7
72919;SHT30;68407;55.694;26.994;2024-01-10T04:53:07;1.7;92.7
72919;SHT30;68407;55.694;26.994;2024-01-10T04:57:29;1.7;92.7
72919;SHT30;68407;55.694;26.994;2024-01-10T05:02:52;1.6;92.7
72919;SHT30;68407;55.694;26.994;2024-01-10T05:08:15;1.6;92.8
72919;SHT30;68407;55.694;26.994;2024-01-10T05:13:01;1.6;92.9
72919;SHT30;68407;55.694;26.994;2024-01-10T05:18:07;1.6;93
72919;SHT30;68407;55.694;26.994;2024-01-10T05:22:59;1.6;93
72919;SHT30;68407;55.694;26.994;2024-01-10T05:28:07;1.7;93
72919;SHT30;68407;55.694;26.994;2024-01-10T05:33:15;1.7;93
72919;SHT30;68407;55.694;26.994;2024-01-10T05:37:29;1.7;93
72919;SHT30;68407;55.694;26.994;2024-01-10T05:42:37;1.7;93
72919;SHT30;68407;55.694;26.994;2024-01-10T05:47:35;1.7;93
72919;SHT30;68407;55.694;26.994;2024-01-10T05:52:41;1.6;93.1
72919;SHT30;68407;55.694;26.994;2024-01-10T05:58:15;1.7;93.1
72919;SHT30;68407;55.694;26.994;2024-01-10T06:02:45;1.7;93.1
72919;SHT30;68407;55.694;26.994;2024-01-10T06:08:05;1.7;93.1
72919;SHT30;68407;55.694;26.994;2024-01-10T06:12:51;1.7;93.1
72919;SHT30;68407;55.694;26.994;2024-01-10T06:17:31;1.7;93.1
72919;SHT30;68407;55.694;26.994;2024-01-10T06:23:17;1.7;93.1
72919;SHT30;68407;55.694;26.994;2024-01-10T06:27:39;1.8;93
72919;SHT30;68407;55.694;26.994;2024-01-10T06:32:51;1.8;92.9
72919;SHT30;68407;55.694;26.994;2024-01-10T06:37:40;1.7;92.9
72919;SHT30;68407;55.694;26.994;2024-01-10T06:43:01;1.8;93.1
72919;SHT30;68407;55.694;26.994;2024-01-10T06:47:57;1.8;93
72919;SHT30;68407;55.694;26.994;2024-01-10T06:52:41;1.8;92.9
72919;SHT30;68407;55.694;26.994;2024-01-10T06:58:07;1.8;92.9
72919;SHT30;68407;55.694;26.994;2024-01-10T07:02:51;1.8;93
72919;SHT30;68407;55.694;26.994;2024-01-10T07:07:53;1.8;92.9
72919;SHT30;68407;55.694;26.994;2024-01-10T07:13:15;1.8;93
72919;SHT30;68407;55.694;26.994;2024-01-10T07:17:38;1.8;93
72919;SHT30;68407;55.694;26.994;2024-01-10T07:22:51;1.8;93
72919;SHT30;68407;55.694;26.994;2024-01-10T07:27:39;1.8;93
72919;SHT30;68407;55.694;26.994;2024-01-10T07:33:03;1.9;92.9
72919;SHT30;68407;55.694;26.994;2024-01-10T07:38:17;1.9;92.7
72919;SHT30;68407;55.694;26.994;2024-01-10T07:42:33;1.9;92.6
72919;SHT30;68407;55.694;26.994;2024-01-10T07:48:07;1.9;92.6
72919;SHT30;68407;55.694;26.994;2024-01-10T07:52:43;1.9;92.6
72919;SHT30;68407;55.694;26.994;2024-01-10T07:57:29;2;92.6
72919;SHT30;68407;55.694;26.994;2024-01-10T08:03:15;2;92.5
72919;SHT30;68407;55.694;26.994;2024-01-10T08:07:53;2.1;92.3
72919;SHT30;68407;55.694;26.994;2024-01-10T08:12:39;2.1;92.2
72919;SHT30;68407;55.694;26.994;2024-01-10T08:17:31;2.1;92.1
72919;SHT30;68407;55.694;26.994;2024-01-10T08:23:03;2.2;91.9
72919;SHT30;68407;55.694;26.994;2024-01-10T08:28:17;2.4;91.6
72919;SHT30;68407;55.694;26.994;2024-01-10T08:33:03;2.5;91.1
72919;SHT30;68407;55.694;26.994;2024-01-10T08:38:07;2.5;90.9
72919;SHT30;68407;55.694;26.994;2024-01-10T08:42:41;2.5;90.7
72919;SHT30;68407;55.694;26.994;2024-01-10T08:48:01;2.5;90.6
72919;SHT30;68407;55.694;26.994;2024-01-10T08:53:15;2.4;90.7
72919;SHT30;68407;55.694;26.994;2024-01-10T08:57:53;2.4;90.7
72919;SHT30;68407;55.694;26.994;2024-01-10T09:02:29;2.4;90.7
72919;SHT30;68407;55.694;26.994;2024-01-10T09:07:31;2.5;90.7
72919;SHT30;68407;55.694;26.994;2024-01-10T09:12:57;2.5;90.7
72919;SHT30;68407;55.694;26.994;2024-01-10T09:18:19;2.6;90.5
72919;SHT30;68407;55.694;26.994;2024-01-10T09:23:03;2.6;90.3
72919;SHT30;68407;55.694;26.994;2024-01-10T09:28:07;2.6;90.4
72919;SHT30;68407;55.694;26.994;2024-01-10T09:32:53;2.5;90.5
72919;SHT30;68407;55.694;26.994;2024-01-10T09:37:37;2.5;90.6
72919;SHT30;68407;55.694;26.994;2024-01-10T09:43:17;2.6;90.6
72919;SHT30;68407;55.694;26.994;2024-01-10T09:47:54;2.6;90.5
72919;SHT30;68407;55.694;26.994;2024-01-10T09:52:39;2.6;90.4
72919;SHT30;68407;55.694;26.994;2024-01-10T09:57:39;2.6;90.4
72919;SHT30;68407;55.694;26.994;2024-01-10T10:03:04;2.7;90.2
72919;SHT30;68407;55.694;26.994;2024-01-10T10:08:17;2.7;90.1
72919;SHT30;68407;55.694;26.994;2024-01-10T10:13:03;2.7;90.1
72919;SHT30;68407;55.694;26.994;2024-01-10T10:18:13;2.6;90.1
72919;SHT30;68407;55.694;26.994;2024-01-10T10:22:29;2.7;90.1
72919;SHT30;68407;55.694;26.994;2024-01-10T10:27:55;2.7;90
72919;SHT30;68407;55.694;26.994;2024-01-10T10:33:20;2.8;90.1
72919;SHT30;68407;55.694;26.994;2024-01-10T10:37:53;2.8;89.8
72919;SHT30;68407;55.694;26.994;2024-01-10T10:42:54;2.7;89.9
72919;SHT30;68407;55.694;26.994;2024-01-10T10:47:37;2.7;90.2
72919;SHT30;68407;55.694;26.994;2024-01-10T10:53:03;2.7;90.4
72919;SHT30;68407;55.694;26.994;2024-01-10T10:58:17;2.8;90.1
72919;SHT30;68407;55.694;26.994;2024-01-10T11:03:05;2.8;89.9
72919;SHT30;68407;55.694;26.994;2024-01-10T11:08:07;2.8;90.1
72919;SHT30;68407;55.694;26.994;2024-01-10T11:12:54;2.8;90.2
72919;SHT30;68407;55.694;26.994;2024-01-10T11:17:33;2.8;90.1
72919;SHT30;68407;55.694;26.994;2024-01-10T11:23:29;2.7;90.1
72919;SHT30;68407;55.694;26.994;2024-01-10T11:27:29;2.6;90.4
72919;SHT30;68407;55.694;26.994;2024-01-10T11:32:49;2.5;90.7
72919;SHT30;68407;55.694;26.994;2024-01-10T11:37:59;2.5;90.9
72919;SHT30;68407;55.694;26.994;2024-01-10T11:43:16;2.5;91
72919;SHT30;68407;55.694;26.994;2024-01-10T11:48:15;2.5;91
72919;SHT30;68407;55.694;26.994;2024-01-10T11:52:53;2.6;90.8
72919;SHT30;68407;55.694;26.994;2024-01-10T11:58:07;2.7;90.6
72919;SHT30;68407;55.694;26.994;2024-01-10T12:02:29;2.8;90.4
72919;SHT30;68407;55.694;26.994;2024-01-10T12:07:51;2.9;90.2
72919;SHT30;68407;55.694;26.994;2024-01-10T12:13:15;2.8;90.3
72919;SHT30;68407;55.694;26.994;2024-01-10T12:17:45;2.7;90.4
72919;SHT30;68407;55.694;26.994;2024-01-10T12:22:53;2.7;90.4
72919;SHT30;68407;55.694;26.994;2024-01-10T12:27:29;2.5;90.7
72919;SHT30;68407;55.694;26.994;2024-01-10T12:33:01;2.4;91.1
72919;SHT30;68407;55.694;26.994;2024-01-10T12:38:15;2.4;91.2
72919;SHT30;68407;55.694;26.994;2024-01-10T12:43:02;2.4;91.3
72919;SHT30;68407;55.694;26.994;2024-01-10T12:47:37;2.4;91.3
72919;SHT30;68407;55.694;26.994;2024-01-10T12:52:47;2.5;91.1
72919;SHT30;68407;55.694;26.994;2024-01-10T12:57:29;2.5;91
72919;SHT30;68407;55.694;26.994;2024-01-10T13:03:17;2.4;91.2
72919;SHT30;68407;55.694;26.994;2024-01-10T13:07:53;2.4;91.3
72919;SHT30;68407;55.694;26.994;2024-01-10T13:12:47;2.4;91.3
72919;SHT30;68407;55.694;26.994;2024-01-10T13:17:35;2.3;91.4
72919;SHT30;68407;55.694;26.994;2024-01-10T13:22:53;2.3;91.5
72919;SHT30;68407;55.694;26.994;2024-01-10T13:28:14;2.3;91.5
72919;SHT30;68407;55.694;26.994;2024-01-10T13:32:39;2.2;91.6
72919;SHT30;68407;55.694;26.994;2024-01-10T13:38:06;2.2;91.8
72919;SHT30;68407;55.694;26.994;2024-01-10T13:42:47;2.1;92
72919;SHT30;68407;55.694;26.994;2024-01-10T13:47:59;2.1;92.1
72919;SHT30;68407;55.694;26.994;2024-01-10T13:53:15;2.1;92.3
72919;SHT30;68407;55.694;26.994;2024-01-10T13:57:29;2.1;92.4
72919;SHT30;68407;55.694;26.994;2024-01-10T14:02:29;2.1;92.4
72919;SHT30;68407;55.694;26.994;2024-01-10T14:07:29;2;92.5
72919;SHT30;68407;55.694;26.994;2024-01-10T14:13:01;2;92.5
72919;SHT30;68407;55.694;26.994;2024-01-10T14:18:16;2;92.6
72919;SHT30;68407;55.694;26.994;2024-01-10T14:23:01;2;92.7
72919;SHT30;68407;55.694;26.994;2024-01-10T14:28:05;2;92.8
72919;SHT30;68407;55.694;26.994;2024-01-10T14:32:29;2;92.9
72919;SHT30;68407;55.694;26.994;2024-01-10T14:37:30;2;92.9
72919;SHT30;68407;55.694;26.994;2024-01-10T14:43:16;2;92.9
72919;SHT30;68407;55.694;26.994;2024-01-10T14:47:51;2;92.9
72919;SHT30;68407;55.694;26.994;2024-01-10T14:52:45;2;93
72919;SHT30;68407;55.694;26.994;2024-01-10T14:57:35;2;93.1
72919;SHT30;68407;55.694;26.994;2024-01-10T15:03:02;2;93.1
72919;SHT30;68407;55.694;26.994;2024-01-10T15:08:15;2;93.1
72919;SHT30;68407;55.694;26.994;2024-01-10T15:13:00;2;92.9
72919;SHT30;68407;55.694;26.994;2024-01-10T15:18:05;2;93
72919;SHT30;68407;55.694;26.994;2024-01-10T15:23:15;2;93
72919;SHT30;68407;55.694;26.994;2024-01-10T15:27:52;2;92.9
72919;SHT30;68407;55.694;26.994;2024-01-10T15:33:05;2.1;92.9
72919;SHT30;68407;55.694;26.994;2024-01-10T15:37:29;2;92.9
72919;SHT30;68407;55.694;26.994;2024-01-10T15:42:29;2;92.9
72919;SHT30;68407;55.694;26.994;2024-01-10T15:47:38;2;92.9
72919;SHT30;68407;55.694;26.994;2024-01-10T15:52:37;2.1;92.8
72919;SHT30;68407;55.694;26.994;2024-01-10T15:58:17;2.1;92.8
72919;SHT30;68407;55.694;26.994;2024-01-10T16:03:18;2.1;92.7
72919;SHT30;68407;55.694;26.994;2024-01-10T16:07:56;2.1;92.6
72919;SHT30;68407;55.694;26.994;2024-01-10T16:13:17;2;92.6
72919;SHT30;68407;55.694;26.994;2024-01-10T16:17:30;2;92.5
72919;SHT30;68407;55.694;26.994;2024-01-10T16:22:49;2;92.5
72919;SHT30;68407;55.694;26.994;2024-01-10T16:27:58;2;92.5
72919;SHT30;68407;55.694;26.994;2024-01-10T16:32:29;2.1;92.5
72919;SHT30;68407;55.694;26.994;2024-01-10T16:37:30;2.1;92.4
72919;SHT30;68407;55.694;26.994;2024-01-10T16:42:36;2.1;92.4
72919;SHT30;68407;55.694;26.994;2024-01-10T16:48:16;2.1;92.4
72919;SHT30;68407;55.694;26.994;2024-01-10T16:53:13;2.1;92.4
72919;SHT30;68407;55.694;26.994;2024-01-10T16:58:07;2;92.4
72919;SHT30;68407;55.694;26.994;2024-01-10T17:03:20;2;92.5
72919;SHT30;68407;55.694;26.994;2024-01-10T17:07:29;2;92.6
72919;SHT30;68407;55.694;26.994;2024-01-10T17:13:08;2;92.6
72919;SHT30;68407;55.694;26.994;2024-01-10T17:17:30;2;92.6
72919;SHT30;68407;55.694;26.994;2024-01-10T17:22:56;2;92.6
72919;SHT30;68407;55.694;26.994;2024-01-10T17:27:42;2;92.6
72919;SHT30;68407;55.694;26.994;2024-01-10T17:32:30;2;92.6
72919;SHT30;68407;55.694;26.994;2024-01-10T17:38:16;2;92.5
72919;SHT30;68407;55.694;26.994;2024-01-10T17:43:18;2;92.5
72919;SHT30;68407;55.694;26.994;2024-01-10T17:48:06;2;92.4
72919;SHT30;68407;55.694;26.994;2024-01-10T17:53:16;2;92.5
72919;SHT30;68407;55.694;26.994;2024-01-10T17:57:30;2;92.5
72919;SHT30;68407;55.694;26.994;2024-01-10T18:02:50;2;92.5
72919;SHT30;68407;55.694;26.994;2024-01-10T18:07:52;2;92.6
72919;SHT30;68407;55.694;26.994;2024-01-10T18:12:36;2;92.6
72919;SHT30;68407;55.694;26.994;2024-01-10T18:17:30;2;92.6
72919;SHT30;68407;55.694;26.994;2024-01-10T18:22:38;2;92.6
72919;SHT30;68407;55.694;26.994;2024-01-10T18:28:18;2;92.7
72919;SHT30;68407;55.694;26.994;2024-01-10T18:33:18;2;92.7
72919;SHT30;68407;55.694;26.994;2024-01-10T18:37:34;2;92.7
72919;SHT30;68407;55.694;26.994;2024-01-10T18:43:16;2;92.7
72919;SHT30;68407;55.694;26.994;2024-01-10T18:47:54;2;92.8
72919;SHT30;68407;55.694;26.994;2024-01-10T18:53:08;2;92.8
72919;SHT30;68407;55.694;26.994;2024-01-10T18:57:38;2;92.9
72919;SHT30;68407;55.694;26.994;2024-01-10T19:02:30;2;93
72919;SHT30;68407;55.694;26.994;2024-01-10T19:07:36;2;93.1
72919;SHT30;68407;55.694;26.994;2024-01-10T19:12:46;2;93.1
72919;SHT30;68407;55.694;26.994;2024-01-10T19:18:16;2;93.1
72919;SHT30;68407;55.694;26.994;2024-01-10T19:23:16;2;93.1
72919;SHT30;68407;55.694;26.994;2024-01-10T19:28:06;2;93.1
72919;SHT30;68407;55.694;26.994;2024-01-10T19:33:16;2;93.1
72919;SHT30;68407;55.694;26.994;2024-01-10T19:37:54;1.9;93.2
72919;SHT30;68407;55.694;26.994;2024-01-10T19:43:08;1.9;93.2
72919;SHT30;68407;55.694;26.994;2024-01-10T19:47:30;1.9;93.2
72919;SHT30;68407;55.694;26.994;2024-01-10T19:52:30;1.9;93.2
72919;SHT30;68407;55.694;26.994;2024-01-10T19:57:38;2;93.1
72919;SHT30;68407;55.694;26.994;2024-01-10T20:03:14;2;93
72919;SHT30;68407;55.694;26.994;2024-01-10T20:07:58;2;92.9
72919;SHT30;68407;55.694;26.994;2024-01-10T20:13:00;2;92.9
72919;SHT30;68407;55.694;26.994;2024-01-10T20:18:14;2;92.9
72919;SHT30;68407;55.694;26.994;2024-01-10T20:23:14;1.9;93
72919;SHT30;68407;55.694;26.994;2024-01-10T20:27:50;2;93.1
72919;SHT30;68407;55.694;26.994;2024-01-10T20:33:14;1.9;93.1
72919;SHT30;68407;55.694;26.994;2024-01-10T20:37:44;1.9;93.2
72919;SHT30;68407;55.694;26.994;2024-01-10T20:42:30;1.9;93.3
72919;SHT30;68407;55.694;26.994;2024-01-10T20:47:58;2;93.3
72919;SHT30;68407;55.694;26.994;2024-01-10T20:53:14;2;93.2
72919;SHT30;68407;55.694;26.994;2024-01-10T20:57:38;2;93.2
72919;SHT30;68407;55.694;26.994;2024-01-10T21:02:58;2;93.1
72919;SHT30;68407;55.694;26.994;2024-01-10T21:08:16;2;93.1
72919;SHT30;68407;55.694;26.994;2024-01-10T21:13:00;2;93.1
72919;SHT30;68407;55.694;26.994;2024-01-10T21:17:40;2;93.1
72919;SHT30;68407;55.694;26.994;2024-01-10T21:23:16;2;93
72919;SHT30;68407;55.694;26.994;2024-01-10T21:27:30;2;92.9
72919;SHT30;68407;55.694;26.994;2024-01-10T21:32:32;2;92.9
72919;SHT30;68407;55.694;26.994;2024-01-10T21:38:16;2;92.8
72919;SHT30;68407;55.694;26.994;2024-01-10T21:42:44;2;92.8
72919;SHT30;68407;55.694;26.994;2024-01-10T21:47:58;2;92.7
72919;SHT30;68407;55.694;26.994;2024-01-10T21:52:58;2;92.6
72919;SHT30;68407;55.694;26.994;2024-01-10T21:58:16;2.1;92.5
72919;SHT30;68407;55.694;26.994;2024-01-10T22:03:16;2.1;92.2
72919;SHT30;68407;55.694;26.994;2024-01-10T22:07:32;2.1;92.1
72919;SHT30;68407;55.694;26.994;2024-01-10T22:13:18;2;92.1
72919;SHT30;68407;55.694;26.994;2024-01-10T22:17:36;2;92
72919;SHT30;68407;55.694;26.994;2024-01-10T22:22:38;2;91.9
72919;SHT30;68407;55.694;26.994;2024-01-10T22:27:58;2;91.8
72919;SHT30;68407;55.694;26.994;2024-01-10T22:32:44;2;91.8
72919;SHT30;68407;55.694;26.994;2024-01-10T22:37:58;2;91.7
72919;SHT30;68407;55.694;26.994;2024-01-10T22:42:56;1.9;91.7
72919;SHT30;68407;55.694;26.994;2024-01-10T22:48:16;1.9;91.7
72919;SHT30;68407;55.694;26.994;2024-01-10T22:53:16;1.8;91.6
72919;SHT30;68407;55.694;26.994;2024-01-10T22:57:54;1.7;91.7
72919;SHT30;68407;55.694;26.994;2024-01-10T23:03:14;1.7;91.8
72919;SHT30;68407;55.694;26.994;2024-01-10T23:07:38;1.7;91.8
72919;SHT30;68407;55.694;26.994;2024-01-10T23:12:30;1.7;91.8
72919;SHT30;68407;55.694;26.994;2024-01-10T23:17:44;1.6;91.8
72919;SHT30;68407;55.694;26.994;2024-01-10T23:22:36;1.6;91.9
72919;SHT30;68407;55.694;26.994;2024-01-10T23:27:52;1.6;91.9
72919;SHT30;68407;55.694;26.994;2024-01-10T23:32:56;1.5;91.9
72919;SHT30;68407;55.694;26.994;2024-01-10T23:38:18;1.5;91.9
72919;SHT30;68407;55.694;26.994;2024-01-10T23:43:16;1.5;92
72919;SHT30;68407;55.694;26.994;2024-01-10T23:47:56;1.5;92
72919;SHT30;68407;55.694;26.994;2024-01-10T23:53:16;1.5;92
72919;SHT30;68407;55.694;26.994;2024-01-10T23:57:36;1.5;91.9
